Budleigh Salterton, United Kingdom
Current Conditions -  °F | °C
As of 11:20 AM on Friday 24 Oct 2014 (Local Time) from EGTE Reporting Station
Broken Clouds Broken Clouds  
Wind Chill: 15°   Ceiling: 1500
Heat Index: 15°   Visibility: 6mi
Dew Point: 14°   Wind: 7mph
Humidity: 94%   Direction: 180°S
Pressure: 29.94"   Gusts: NA
Location:  50.63°N, 3.32°W
Report Text: EGTE 241020Z 18006KT 9999 FEW006 BKN015 15/14 Q1014
Loading
Personal Weather Stations






























Interactive Weather Map
Tropical Storm Tracking
New forecast layout! Learn more

10-Day Weather Forecast

Advertisements
Track Severe Weather on mobile